Time;durP1;ratioP1;P1;durP2;ratioP2;P2;SDS_P1;SDS_P2;PMS_P1;PMS_P2;Temp;Humidity;BMP_temperature;BMP_pressure;BME280_temperature;BME280_humidity;BME280_pressure;Samples;Min_cycle;Max_cycle;Signal;HPM_P1;HPM_P2
2022/11/09 00:01:04;;;;;;;;;;;13.90;99.90;;;;;;5006456;28;20024;-69
2022/11/09 00:03:31;;;;;;;;;;;13.80;99.90;;;;;;5012615;28;20287;-69
2022/11/09 00:05:59;;;;;;;;;;;13.80;99.90;;;;;;4997134;28;19930;-69
2022/11/09 00:08:25;;;;;;;;;;;13.90;99.90;;;;;;5012069;28;19943;-69
2022/11/09 00:10:52;;;;;;;;;;;13.80;99.90;;;;;;5011686;28;19932;-69
2022/11/09 00:13:18;;;;;;;;;;;13.70;99.90;;;;;;5011951;28;19926;-69
2022/11/09 00:15:46;;;;;;;;;;;13.70;99.90;;;;;;5003504;28;19948;-69
2022/11/09 00:18:13;;;;;;;;;;;13.70;99.90;;;;;;5012427;28;20513;-69
2022/11/09 00:20:40;;;;;;;;;;;13.70;99.90;;;;;;5011969;28;19933;-69
2022/11/09 00:23:07;;;;;;;;;;;13.80;99.90;;;;;;5012174;28;19932;-69
2022/11/09 00:25:33;;;;;;;;;;;13.70;99.90;;;;;;5012432;28;19926;-68
2022/11/09 00:28:00;;;;;;;;;;;13.70;99.90;;;;;;4996795;28;20452;-69
2022/11/09 00:30:27;;;;;;;;;;;13.70;99.90;;;;;;5012207;28;20340;-69
2022/11/09 00:32:56;;;;;;;;;;;13.70;99.90;;;;;;5012198;28;19932;-69
2022/11/09 00:35:23;;;;;;;;;;;13.70;99.90;;;;;;5012234;28;19925;-69
2022/11/09 00:37:49;;;;;;;;;;;13.80;99.90;;;;;;5012029;28;20024;-69
2022/11/09 00:40:16;;;;;;;;;;;13.70;99.90;;;;;;5012050;28;20012;-69
2022/11/09 00:42:43;;;;;;;;;;;13.70;99.90;;;;;;5011724;28;19932;-69
2022/11/09 00:45:09;;;;;;;;;;;13.60;99.90;;;;;;5012559;28;20011;-69
2022/11/09 00:47:36;;;;;;;;;;;13.60;99.90;;;;;;5011933;28;19926;-69
2022/11/09 00:50:04;;;;;;;;;;;13.50;99.90;;;;;;5012111;28;19925;-69
2022/11/09 00:52:31;;;;;;;;;;;13.50;99.90;;;;;;5010815;28;20008;-69
2022/11/09 00:54:58;;;;;;;;;;;13.50;99.90;;;;;;5002704;28;20276;-69
2022/11/09 00:57:24;;;;;;;;;;;13.50;99.90;;;;;;5011810;28;20450;-69
2022/11/09 00:59:52;;;;;;;;;;;13.50;99.90;;;;;;5011479;28;20398;-69
2022/11/09 01:02:19;;;;;;;;;;;13.50;99.90;;;;;;5011052;28;19932;-69
2022/11/09 01:04:45;;;;;;;;;;;13.40;99.90;;;;;;5010824;28;19926;-69
2022/11/09 01:07:13;;;;;;;;;;;13.40;99.90;;;;;;5011217;28;19925;-69
2022/11/09 01:09:40;;;;;;;;;;;13.40;99.90;;;;;;5010964;28;20012;-70
2022/11/09 01:12:07;;;;;;;;;;;13.30;99.90;;;;;;5009850;28;19925;-69
2022/11/09 01:14:33;;;;;;;;;;;13.30;99.90;;;;;;5011162;28;19944;-69
2022/11/09 01:17:00;;;;;;;;;;;13.30;99.90;;;;;;5011807;28;19925;-69
2022/11/09 01:19:27;;;;;;;;;;;13.20;99.90;;;;;;5011347;28;19925;-69
2022/11/09 01:21:53;;;;;;;;;;;13.20;99.90;;;;;;5010667;28;19926;-69
2022/11/09 01:24:21;;;;;;;;;;;13.20;99.90;;;;;;5000142;28;20036;-68
2022/11/09 01:26:48;;;;;;;;;;;13.20;99.90;;;;;;5008636;28;19930;-69
2022/11/09 01:29:15;;;;;;;;;;;13.20;99.90;;;;;;5010996;28;20021;-69
2022/11/09 01:31:41;;;;;;;;;;;13.20;99.90;;;;;;5010572;28;20443;-69
2022/11/09 01:34:08;;;;;;;;;;;13.10;99.90;;;;;;5010208;28;19925;-69
2022/11/09 01:36:34;;;;;;;;;;;13.10;99.90;;;;;;5009589;28;19934;-69
2022/11/09 01:39:01;;;;;;;;;;;13.10;99.90;;;;;;5010676;28;19925;-69
2022/11/09 01:41:29;;;;;;;;;;;13.10;99.90;;;;;;5011519;28;20020;-69
2022/11/09 01:44:03;;;;;;;;;;;13.10;99.90;;;;;;5011174;28;20008;-69
2022/11/09 01:46:33;;;;;;;;;;;13.20;99.90;;;;;;5011570;28;20349;-69
2022/11/09 01:49:03;;;;;;;;;;;13.20;99.90;;;;;;5011058;28;19931;-69
2022/11/09 01:51:31;;;;;;;;;;;13.20;99.90;;;;;;4998267;28;19925;-69
2022/11/09 01:53:59;;;;;;;;;;;13.20;99.90;;;;;;5011278;28;19932;-69
2022/11/09 01:56:26;;;;;;;;;;;13.20;99.90;;;;;;5011201;28;19948;-69
2022/11/09 01:58:56;;;;;;;;;;;13.20;99.90;;;;;;5010688;28;20032;-69
2022/11/09 02:01:23;;;;;;;;;;;13.30;99.90;;;;;;5010874;28;19932;-69
2022/11/09 02:03:52;;;;;;;;;;;13.30;99.90;;;;;;5010679;28;19926;-69
2022/11/09 02:06:19;;;;;;;;;;;13.20;99.90;;;;;;5010060;28;19926;-69
2022/11/09 02:08:46;;;;;;;;;;;13.20;99.90;;;;;;5010273;28;19925;-69
2022/11/09 02:11:14;;;;;;;;;;;13.20;99.90;;;;;;5010546;28;20019;-70
2022/11/09 02:13:42;;;;;;;;;;;13.20;99.90;;;;;;5010527;28;20033;-69
2022/11/09 02:16:11;;;;;;;;;;;13.20;99.90;;;;;;5009290;28;20012;-69
2022/11/09 02:18:41;;;;;;;;;;;13.20;99.90;;;;;;5006725;28;19926;-69
2022/11/09 02:21:09;;;;;;;;;;;13.20;99.90;;;;;;5008027;28;19965;-69
2022/11/09 02:23:35;;;;;;;;;;;13.20;99.90;;;;;;5008305;28;19939;-69
2022/11/09 02:26:05;;;;;;;;;;;13.10;99.90;;;;;;5009858;28;19925;-70
2022/11/09 02:28:32;;;;;;;;;;;13.10;99.90;;;;;;5009601;28;19941;-69
2022/11/09 02:30:58;;;;;;;;;;;13.10;99.90;;;;;;5009790;28;19933;-69
2022/11/09 02:33:25;;;;;;;;;;;13.10;99.90;;;;;;5010272;28;19926;-69
2022/11/09 02:35:52;;;;;;;;;;;13.00;99.90;;;;;;5010671;28;19932;-69
2022/11/09 02:38:20;;;;;;;;;;;13.00;99.90;;;;;;5010541;28;19936;-69
2022/11/09 02:40:48;;;;;;;;;;;13.00;99.90;;;;;;5009870;28;19932;-68
2022/11/09 02:43:16;;;;;;;;;;;13.00;99.90;;;;;;5009745;28;20012;-69
2022/11/09 02:45:43;;;;;;;;;;;12.90;99.90;;;;;;5010010;28;19968;-69
2022/11/09 02:48:09;;;;;;;;;;;13.00;99.90;;;;;;5008501;28;20008;-68
2022/11/09 02:50:36;;;;;;;;;;;13.00;99.90;;;;;;5009779;28;20419;-69
2022/11/09 02:53:03;;;;;;;;;;;13.00;99.90;;;;;;5008994;28;19926;-69
2022/11/09 02:55:31;;;;;;;;;;;13.00;99.90;;;;;;5009476;28;19926;-69
2022/11/09 02:57:57;;;;;;;;;;;13.00;99.90;;;;;;5009774;28;19936;-68
2022/11/09 03:00:24;;;;;;;;;;;13.00;99.90;;;;;;5009406;28;20012;-68
2022/11/09 03:02:51;;;;;;;;;;;12.90;99.90;;;;;;5009517;28;19933;-69
2022/11/09 03:05:18;;;;;;;;;;;12.80;99.90;;;;;;5010039;28;20399;-68
2022/11/09 03:07:44;;;;;;;;;;;12.80;99.90;;;;;;5008668;28;19998;-68
2022/11/09 03:10:11;;;;;;;;;;;12.80;99.90;;;;;;5009384;28;19925;-69
2022/11/09 03:12:39;;;;;;;;;;;12.80;99.90;;;;;;5009682;28;20019;-69
2022/11/09 03:15:07;;;;;;;;;;;12.80;99.90;;;;;;5009652;28;19932;-68
2022/11/09 03:17:34;;;;;;;;;;;12.80;99.90;;;;;;5003722;28;19978;-70
2022/11/09 03:20:01;;;;;;;;;;;12.80;99.90;;;;;;5009589;28;19932;-69
2022/11/09 03:22:28;;;;;;;;;;;12.70;99.90;;;;;;5009624;28;20012;-69
2022/11/09 03:24:54;;;;;;;;;;;12.70;99.90;;;;;;5009433;28;20040;-69
2022/11/09 03:27:21;;;;;;;;;;;12.70;99.90;;;;;;5009017;28;19973;-69
2022/11/09 03:29:49;;;;;;;;;;;12.70;99.90;;;;;;5009045;28;20496;-69
2022/11/09 03:32:16;;;;;;;;;;;12.70;99.90;;;;;;5009137;28;19932;-69
2022/11/09 03:34:42;;;;;;;;;;;12.70;99.90;;;;;;5009234;28;20006;-70
2022/11/09 03:37:09;;;;;;;;;;;12.70;99.90;;;;;;5007813;28;20335;-69
2022/11/09 03:39:36;;;;;;;;;;;12.60;99.90;;;;;;5007612;28;19932;-70
2022/11/09 03:42:02;;;;;;;;;;;12.60;99.90;;;;;;5009305;28;19925;-69
2022/11/09 03:44:29;;;;;;;;;;;12.60;99.90;;;;;;5006252;28;20280;-69
2022/11/09 03:46:57;;;;;;;;;;;12.60;99.90;;;;;;5002263;28;20028;-69
2022/11/09 03:49:23;;;;;;;;;;;12.60;99.90;;;;;;5009424;28;20475;-68
2022/11/09 03:51:50;;;;;;;;;;;12.50;99.90;;;;;;5009216;28;19933;-69
2022/11/09 03:54:17;;;;;;;;;;;12.50;99.90;;;;;;5009079;28;19926;-68
2022/11/09 03:56:44;;;;;;;;;;;12.50;99.90;;;;;;5009555;28;19932;-69
2022/11/09 03:59:10;;;;;;;;;;;12.40;99.90;;;;;;5009161;28;20004;-69
2022/11/09 04:01:37;;;;;;;;;;;12.40;99.90;;;;;;5009201;28;20008;-69
2022/11/09 04:04:05;;;;;;;;;;;12.40;99.90;;;;;;5008810;28;19961;-69
2022/11/09 04:06:32;;;;;;;;;;;12.30;99.90;;;;;;5009416;28;19925;-67
2022/11/09 04:08:58;;;;;;;;;;;12.30;99.90;;;;;;5008045;28;20407;-68
2022/11/09 04:11:25;;;;;;;;;;;12.30;99.90;;;;;;5008195;28;19925;-69
2022/11/09 04:13:52;;;;;;;;;;;12.30;99.90;;;;;;5008908;28;19953;-69
2022/11/09 04:16:18;;;;;;;;;;;12.30;99.90;;;;;;5006851;28;20024;-70
2022/11/09 04:18:45;;;;;;;;;;;12.20;99.90;;;;;;5009069;28;19925;-69
2022/11/09 04:21:13;;;;;;;;;;;12.20;99.90;;;;;;5008935;28;19948;-69
2022/11/09 04:23:39;;;;;;;;;;;12.20;99.90;;;;;;5008383;28;20013;-69
2022/11/09 04:26:06;;;;;;;;;;;12.20;99.90;;;;;;5008969;28;19947;-69
2022/11/09 04:28:33;;;;;;;;;;;12.10;99.90;;;;;;5008630;28;20012;-69
2022/11/09 04:31:00;;;;;;;;;;;12.10;99.90;;;;;;5008593;28;19984;-69
2022/11/09 04:33:26;;;;;;;;;;;12.10;99.90;;;;;;5008717;28;19968;-69
2022/11/09 04:35:53;;;;;;;;;;;12.10;99.90;;;;;;5008667;28;19926;-69
2022/11/09 04:38:21;;;;;;;;;;;12.10;99.90;;;;;;5008230;28;20388;-69
2022/11/09 04:40:48;;;;;;;;;;;12.00;99.90;;;;;;5008413;28;20016;-69
2022/11/09 04:43:15;;;;;;;;;;;12.00;99.90;;;;;;5001782;28;19925;-70
2022/11/09 04:45:41;;;;;;;;;;;11.90;99.90;;;;;;5008313;28;19925;-70
2022/11/09 04:48:10;;;;;;;;;;;11.90;99.90;;;;;;5010789;28;19926;-69
2022/11/09 04:50:37;;;;;;;;;;;11.90;99.90;;;;;;5012082;28;19925;-69
2022/11/09 04:53:05;;;;;;;;;;;11.90;99.90;;;;;;5011485;28;19975;-69
2022/11/09 04:55:33;;;;;;;;;;;11.80;99.90;;;;;;5011412;28;20273;-69
2022/11/09 04:58:00;;;;;;;;;;;11.90;99.90;;;;;;5011028;28;20009;-69
2022/11/09 05:00:26;;;;;;;;;;;11.80;99.90;;;;;;5010798;28;19978;-69
2022/11/09 05:02:53;;;;;;;;;;;11.80;99.90;;;;;;5011309;28;19930;-69
2022/11/09 05:05:20;;;;;;;;;;;11.80;99.90;;;;;;5011684;28;20028;-69
2022/11/09 05:07:46;;;;;;;;;;;11.70;99.90;;;;;;5009293;28;20428;-69
2022/11/09 05:10:13;;;;;;;;;;;11.70;99.90;;;;;;5011617;28;19936;-70
2022/11/09 05:12:41;;;;;;;;;;;11.70;99.90;;;;;;5011455;28;20447;-69
2022/11/09 05:15:08;;;;;;;;;;;11.70;99.90;;;;;;5011726;28;20032;-69
2022/11/09 05:17:34;;;;;;;;;;;11.70;99.90;;;;;;5011135;28;19932;-69
2022/11/09 05:20:01;;;;;;;;;;;11.70;99.90;;;;;;5011213;28;20008;-69
2022/11/09 05:25:12;;;;;;;;;;;11.80;99.90;;;;;;5011223;28;19932;-68
2022/11/09 05:27:38;;;;;;;;;;;11.70;99.90;;;;;;5011724;28;19926;-68
2022/11/09 05:30:07;;;;;;;;;;;11.70;99.90;;;;;;5011177;28;20051;-69
2022/11/09 05:32:35;;;;;;;;;;;11.70;99.90;;;;;;5011316;28;20028;-69
2022/11/09 05:35:02;;;;;;;;;;;11.60;99.90;;;;;;5007874;28;19960;-69
2022/11/09 05:37:29;;;;;;;;;;;11.60;99.90;;;;;;5010793;28;20024;-69
2022/11/09 05:39:55;;;;;;;;;;;11.50;99.90;;;;;;5011556;28;19932;-69
2022/11/09 05:42:23;;;;;;;;;;;11.50;99.90;;;;;;5011071;28;19926;-69
2022/11/09 05:44:50;;;;;;;;;;;11.50;99.90;;;;;;5011370;28;20035;-68
2022/11/09 05:47:19;;;;;;;;;;;11.50;99.90;;;;;;5011247;28;19926;-68
2022/11/09 05:49:45;;;;;;;;;;;11.50;99.90;;;;;;5011091;28;20400;-68
2022/11/09 05:52:12;;;;;;;;;;;11.50;99.90;;;;;;5010348;28;20016;-68
2022/11/09 05:54:39;;;;;;;;;;;11.50;99.90;;;;;;5010607;28;19925;-68
2022/11/09 05:57:05;;;;;;;;;;;11.50;99.90;;;;;;5010625;28;19933;-68
2022/11/09 05:59:32;;;;;;;;;;;11.50;99.90;;;;;;5009404;28;19971;-68
2022/11/09 06:01:59;;;;;;;;;;;11.50;99.90;;;;;;5001676;28;20020;-68
2022/11/09 06:04:27;;;;;;;;;;;11.50;99.90;;;;;;5004123;28;19925;-68
2022/11/09 06:06:53;;;;;;;;;;;11.50;99.90;;;;;;5010858;28;20020;-69
2022/11/09 06:09:20;;;;;;;;;;;11.40;99.90;;;;;;4992755;28;20028;-69
2022/11/09 06:11:47;;;;;;;;;;;11.40;99.90;;;;;;5010271;28;20008;-69
2022/11/09 06:14:13;;;;;;;;;;;11.40;99.90;;;;;;5010703;28;20020;-69
2022/11/09 06:16:40;;;;;;;;;;;11.40;99.90;;;;;;5010258;28;20020;-68
2022/11/09 06:19:07;;;;;;;;;;;11.40;99.90;;;;;;5010886;28;19932;-69
2022/11/09 06:21:35;;;;;;;;;;;11.40;99.90;;;;;;5009060;28;20412;-68
2022/11/09 06:24:01;;;;;;;;;;;11.40;99.90;;;;;;5009284;28;19932;-69
2022/11/09 06:26:34;;;;;;;;;;;11.40;99.90;;;;;;5002730;28;19929;-68
2022/11/09 06:29:01;;;;;;;;;;;11.40;99.90;;;;;;5010514;22;19932;-68
2022/11/09 06:31:28;;;;;;;;;;;11.40;99.90;;;;;;4983743;28;19971;-68
2022/11/09 06:33:54;;;;;;;;;;;11.50;99.90;;;;;;4989853;28;19930;-70
2022/11/09 06:36:21;;;;;;;;;;;11.50;99.90;;;;;;4993893;28;19976;-69
2022/11/09 06:38:49;;;;;;;;;;;11.50;99.90;;;;;;4989349;28;19929;-69
2022/11/09 06:41:16;;;;;;;;;;;11.50;99.90;;;;;;4987913;28;19926;-69
2022/11/09 06:43:43;;;;;;;;;;;11.50;99.90;;;;;;4982450;28;20013;-69
2022/11/09 06:46:10;;;;;;;;;;;11.50;99.90;;;;;;4985659;28;19938;-69
2022/11/09 06:48:37;;;;;;;;;;;11.60;99.90;;;;;;4984737;28;19964;-70
2022/11/09 06:51:05;;;;;;;;;;;11.60;99.90;;;;;;4985211;28;20380;-70
2022/11/09 06:53:32;;;;;;;;;;;11.60;99.90;;;;;;4988358;28;19965;-69
2022/11/09 06:56:01;;;;;;;;;;;11.50;99.90;;;;;;4985632;28;20380;-69
2022/11/09 06:58:28;;;;;;;;;;;11.50;99.90;;;;;;4987773;28;19940;-69
2022/11/09 07:00:54;;;;;;;;;;;11.50;99.90;;;;;;4985458;28;19926;-70
2022/11/09 07:03:21;;;;;;;;;;;11.40;99.90;;;;;;4985821;28;19926;-69
2022/11/09 07:05:48;;;;;;;;;;;11.40;99.90;;;;;;4988586;28;20440;-70
2022/11/09 07:08:15;;;;;;;;;;;11.30;99.90;;;;;;4989084;28;19926;-70
2022/11/09 07:10:42;;;;;;;;;;;11.30;99.90;;;;;;4986843;28;19925;-70
2022/11/09 07:13:10;;;;;;;;;;;11.30;99.90;;;;;;4989095;28;19934;-70
2022/11/09 07:15:38;;;;;;;;;;;11.30;99.90;;;;;;4986210;28;19926;-67
2022/11/09 07:18:05;;;;;;;;;;;11.30;99.90;;;;;;4984726;28;19929;-69
2022/11/09 07:20:32;;;;;;;;;;;11.30;99.90;;;;;;4986263;28;19925;-68
2022/11/09 07:22:59;;;;;;;;;;;11.30;99.90;;;;;;4989958;28;19932;-70
2022/11/09 07:25:26;;;;;;;;;;;11.30;99.90;;;;;;4986947;28;19969;-70
2022/11/09 07:27:52;;;;;;;;;;;11.30;99.90;;;;;;4989315;28;20059;-69
2022/11/09 07:30:21;;;;;;;;;;;11.30;99.90;;;;;;4987440;28;20020;-70
2022/11/09 07:32:47;;;;;;;;;;;11.30;99.90;;;;;;4989637;28;19926;-69
2022/11/09 07:35:14;;;;;;;;;;;11.40;99.90;;;;;;4986792;28;20389;-71
2022/11/09 07:37:41;;;;;;;;;;;11.40;99.90;;;;;;4989749;28;20456;-70
2022/11/09 07:40:08;;;;;;;;;;;11.40;99.90;;;;;;4990400;28;19926;-70
2022/11/09 07:42:35;;;;;;;;;;;11.40;99.90;;;;;;4989326;28;19952;-70
2022/11/09 07:45:02;;;;;;;;;;;11.40;99.90;;;;;;4990034;28;20009;-70
2022/11/09 07:47:30;;;;;;;;;;;11.40;99.90;;;;;;4990045;28;19969;-70
2022/11/09 07:49:56;;;;;;;;;;;11.50;99.90;;;;;;4990573;28;20040;-69
2022/11/09 07:52:23;;;;;;;;;;;11.50;99.90;;;;;;4988538;28;19926;-70
2022/11/09 07:54:50;;;;;;;;;;;11.50;99.90;;;;;;4990394;28;19925;-70
2022/11/09 07:57:16;;;;;;;;;;;11.60;99.90;;;;;;4983284;28;19932;-70
2022/11/09 07:59:43;;;;;;;;;;;11.60;99.90;;;;;;4989508;28;20302;-70
2022/11/09 08:02:10;;;;;;;;;;;11.70;99.90;;;;;;4989994;28;19926;-71
2022/11/09 08:04:38;;;;;;;;;;;12.20;99.90;;;;;;4985682;28;20021;-69
2022/11/09 08:07:04;;;;;;;;;;;13.20;99.90;;;;;;4991715;28;19965;-69
2022/11/09 08:09:31;;;;;;;;;;;13.60;99.90;;;;;;4978618;28;19948;-68
2022/11/09 08:11:58;;;;;;;;;;;13.70;99.90;;;;;;4981459;28;19930;-69
2022/11/09 08:14:24;;;;;;;;;;;13.70;99.90;;;;;;4980345;28;20288;-70
2022/11/09 08:16:51;;;;;;;;;;;13.70;99.90;;;;;;4976100;28;20303;-70
2022/11/09 08:19:18;;;;;;;;;;;13.70;99.90;;;;;;4975504;28;20839;-70
2022/11/09 08:21:46;;;;;;;;;;;13.80;99.90;;;;;;4974827;28;19969;-69
2022/11/09 08:24:13;;;;;;;;;;;14.00;99.90;;;;;;4978320;28;20655;-70
2022/11/09 08:26:39;;;;;;;;;;;13.90;99.90;;;;;;4979727;28;21962;-70
2022/11/09 08:29:06;;;;;;;;;;;14.20;99.90;;;;;;4979549;28;20436;-70
2022/11/09 08:31:33;;;;;;;;;;;14.30;99.90;;;;;;4980521;28;19933;-70
2022/11/09 08:33:59;;;;;;;;;;;14.60;99.90;;;;;;4977719;28;20098;-70
2022/11/09 08:36:28;;;;;;;;;;;14.40;99.90;;;;;;4976985;28;20025;-70
2022/11/09 08:38:58;;;;;;;;;;;14.30;99.90;;;;;;4977882;28;20415;-70
2022/11/09 08:41:24;;;;;;;;;;;14.30;99.90;;;;;;4979184;28;19930;-70
2022/11/09 08:43:51;;;;;;;;;;;14.10;99.90;;;;;;4980146;28;19965;-70
2022/11/09 08:46:18;;;;;;;;;;;14.10;99.90;;;;;;4982050;28;20012;-70
2022/11/09 08:48:44;;;;;;;;;;;13.80;99.90;;;;;;4978999;28;19930;-70
2022/11/09 08:51:11;;;;;;;;;;;14.20;99.90;;;;;;4980594;28;20025;-69
2022/11/09 08:53:38;;;;;;;;;;;14.70;99.90;;;;;;4979524;28;20021;-70
2022/11/09 08:56:07;;;;;;;;;;;14.70;99.90;;;;;;4984283;28;19965;-71
2022/11/09 08:58:34;;;;;;;;;;;14.60;99.90;;;;;;4990258;28;19972;-70
2022/11/09 09:01:00;;;;;;;;;;;14.90;99.90;;;;;;4990156;28;19941;-70
2022/11/09 09:03:27;;;;;;;;;;;14.50;99.90;;;;;;4990689;28;20408;-70
2022/11/09 09:05:54;;;;;;;;;;;14.60;99.90;;;;;;4989823;28;20360;-70
2022/11/09 09:08:21;;;;;;;;;;;14.60;99.90;;;;;;4990511;28;20366;-70
2022/11/09 09:10:48;;;;;;;;;;;14.30;99.90;;;;;;4987730;28;19937;-69
2022/11/09 09:13:18;;;;;;;;;;;13.90;99.90;;;;;;4988758;28;19973;-70
2022/11/09 09:15:44;;;;;;;;;;;13.50;99.90;;;;;;4987988;28;19933;-69
2022/11/09 09:18:11;;;;;;;;;;;13.20;99.90;;;;;;4989136;28;20426;-70
2022/11/09 09:20:38;;;;;;;;;;;13.20;99.90;;;;;;4987038;28;20621;-68
2022/11/09 09:23:04;;;;;;;;;;;13.00;99.90;;;;;;4985810;28;20005;-70
2022/11/09 09:25:31;;;;;;;;;;;13.00;99.90;;;;;;4987285;28;19930;-69
2022/11/09 09:27:58;;;;;;;;;;;13.10;99.90;;;;;;4989857;28;19932;-69
2022/11/09 09:30:26;;;;;;;;;;;13.00;99.90;;;;;;4989186;28;20393;-70
2022/11/09 09:32:52;;;;;;;;;;;12.90;99.90;;;;;;4988609;28;19926;-68
2022/11/09 09:35:19;;;;;;;;;;;13.00;99.90;;;;;;4987987;28;20009;-68
2022/11/09 09:37:46;;;;;;;;;;;13.10;99.90;;;;;;4992628;28;20400;-68
2022/11/09 09:40:20;;;;;;;;;;;13.20;99.90;;;;;;5025886;28;19924;-68
2022/11/09 09:42:47;;;;;;;;;;;13.20;99.90;;;;;;4994559;28;20338;-69
2022/11/09 09:45:16;;;;;;;;;;;13.20;99.90;;;;;;4990507;28;20025;-69
2022/11/09 09:47:48;;;;;;;;;;;13.30;99.90;;;;;;4991815;28;19926;-68
2022/11/09 09:50:17;;;;;;;;;;;13.20;99.90;;;;;;4987461;28;20005;-68
2022/11/09 09:52:45;;;;;;;;;;;13.20;99.90;;;;;;4989836;28;19990;-71
2022/11/09 09:55:17;;;;;;;;;;;13.20;99.90;;;;;;4990169;28;19926;-71
2022/11/09 09:57:48;;;;;;;;;;;13.20;99.90;;;;;;4976953;28;20008;-72
2022/11/09 10:00:19;;;;;;;;;;;13.20;99.90;;;;;;4990364;28;20523;-72
2022/11/09 10:02:48;;;;;;;;;;;13.20;99.90;;;;;;4986868;28;19926;-71
2022/11/09 10:05:15;;;;;;;;;;;13.40;99.90;;;;;;4988723;28;19933;-72
2022/11/09 10:07:45;;;;;;;;;;;13.60;99.90;;;;;;4991431;28;19926;-70
2022/11/09 10:10:26;;;;;;;;;;;13.60;99.90;;;;;;4990775;28;19926;-70
2022/11/09 10:13:04;;;;;;;;;;;13.60;99.90;;;;;;4990040;28;19926;-70
2022/11/09 10:15:33;;;;;;;;;;;13.50;99.90;;;;;;4988631;28;20393;-70
2022/11/09 10:18:08;;;;;;;;;;;13.40;99.90;;;;;;4991050;28;20040;-70
2022/11/09 10:20:41;;;;;;;;;;;13.40;99.90;;;;;;4989620;28;20375;-69
2022/11/09 10:23:24;;;;;;;;;;;13.40;99.90;;;;;;4990425;28;19930;-69
2022/11/09 10:25:54;;;;;;;;;;;13.50;99.90;;;;;;4989926;28;19977;-69
2022/11/09 10:28:24;;;;;;;;;;;13.60;99.90;;;;;;4991915;28;19932;-66
2022/11/09 10:30:51;;;;;;;;;;;13.70;99.90;;;;;;4989815;28;20050;-69
2022/11/09 10:33:20;;;;;;;;;;;13.90;99.90;;;;;;4985048;28;19926;-70
2022/11/09 10:35:49;;;;;;;;;;;14.10;99.90;;;;;;4989929;28;19933;-70
2022/11/09 10:38:18;;;;;;;;;;;14.10;99.90;;;;;;4991147;28;20357;-70
2022/11/09 10:40:48;;;;;;;;;;;14.00;99.90;;;;;;4988212;28;19932;-71
2022/11/09 10:43:15;;;;;;;;;;;13.90;99.90;;;;;;4988249;28;19926;-71
2022/11/09 10:45:42;;;;;;;;;;;14.00;99.90;;;;;;4989024;28;19925;-71
2022/11/09 10:48:09;;;;;;;;;;;14.00;99.90;;;;;;4990258;28;19926;-71
2022/11/09 10:50:39;;;;;;;;;;;14.20;99.90;;;;;;4987827;28;19926;-70
2022/11/09 10:53:11;;;;;;;;;;;14.30;99.90;;;;;;4983946;28;20386;-70
2022/11/09 10:55:37;;;;;;;;;;;14.30;99.90;;;;;;4987327;28;20375;-72
2022/11/09 10:58:15;;;;;;;;;;;14.20;99.90;;;;;;4987796;28;19972;-74
2022/11/09 11:00:54;;;;;;;;;;;14.20;99.90;;;;;;4984614;28;20020;-72
2022/11/09 11:03:24;;;;;;;;;;;14.10;99.90;;;;;;4988116;28;19926;-70
2022/11/09 11:05:57;;;;;;;;;;;14.10;99.90;;;;;;4985093;28;19940;-72
2022/11/09 11:08:28;;;;;;;;;;;14.20;99.90;;;;;;4988472;28;19937;-68
2022/11/09 11:11:08;;;;;;;;;;;14.30;99.90;;;;;;4988703;28;20523;-68
2022/11/09 11:13:35;;;;;;;;;;;14.30;99.90;;;;;;4981087;28;20015;-68
2022/11/09 11:16:13;;;;;;;;;;;14.30;99.90;;;;;;4985884;28;19933;-69
2022/11/09 11:18:43;;;;;;;;;;;14.20;99.90;;;;;;4980838;28;19973;-68
2022/11/09 11:21:15;;;;;;;;;;;14.10;99.90;;;;;;4987445;28;20020;-70
2022/11/09 11:23:42;;;;;;;;;;;14.30;99.90;;;;;;4982462;28;20389;-70
2022/11/09 11:26:17;;;;;;;;;;;14.20;99.90;;;;;;4988478;28;20042;-70
2022/11/09 11:28:46;;;;;;;;;;;14.00;99.90;;;;;;4986861;28;20029;-70
2022/11/09 11:31:14;;;;;;;;;;;13.90;99.90;;;;;;4988426;28;19926;-71
2022/11/09 11:33:41;;;;;;;;;;;13.70;99.90;;;;;;4986882;28;19932;-71
2022/11/09 11:36:12;;;;;;;;;;;13.60;99.90;;;;;;4988048;28;19951;-70
2022/11/09 11:38:42;;;;;;;;;;;13.60;99.90;;;;;;4988494;28;19926;-70
2022/11/09 11:41:22;;;;;;;;;;;13.60;99.90;;;;;;4986689;28;20012;-69
2022/11/09 11:43:53;;;;;;;;;;;13.70;99.90;;;;;;4985125;28;20009;-69
2022/11/09 11:46:27;;;;;;;;;;;13.80;99.90;;;;;;4988689;28;20387;-69
2022/11/09 11:49:14;;;;;;;;;;;13.70;99.90;;;;;;4989318;28;19932;-68
2022/11/09 11:51:46;;;;;;;;;;;13.70;99.90;;;;;;4988839;28;20445;-71
2022/11/09 11:54:20;;;;;;;;;;;13.70;99.90;;;;;;4987581;28;19926;-72
2022/11/09 11:56:47;;;;;;;;;;;13.70;99.90;;;;;;4987988;28;19926;-73
2022/11/09 11:59:38;;;;;;;;;;;13.70;99.90;;;;;;4993482;28;20017;-73
2022/11/09 12:02:20;;;;;;;;;;;13.80;99.90;;;;;;5007199;28;19999;-73
2022/11/09 12:04:57;;;;;;;;;;;13.60;99.90;;;;;;4987311;28;19925;-72
2022/11/09 12:07:31;;;;;;;;;;;13.50;99.90;;;;;;4989083;28;19947;-72
2022/11/09 12:10:04;;;;;;;;;;;13.30;99.90;;;;;;4989945;28;19961;-71
2022/11/09 12:12:35;;;;;;;;;;;13.30;99.90;;;;;;4980293;28;20012;-72
2022/11/09 12:15:06;;;;;;;;;;;13.20;99.90;;;;;;4991786;28;20029;-72
2022/11/09 12:17:39;;;;;;;;;;;13.10;99.90;;;;;;4992843;28;20031;-73
2022/11/09 12:20:21;;;;;;;;;;;13.10;99.90;;;;;;4991460;28;19926;-72
2022/11/09 12:22:53;;;;;;;;;;;13.10;99.90;;;;;;4985037;28;20000;-71
2022/11/09 12:25:23;;;;;;;;;;;13.20;99.90;;;;;;4985061;28;19926;-73
2022/11/09 12:27:57;;;;;;;;;;;13.20;99.90;;;;;;4991442;28;20037;-72
2022/11/09 12:30:26;;;;;;;;;;;13.30;99.90;;;;;;5026811;28;20423;-72
2022/11/09 12:32:54;;;;;;;;;;;13.40;99.90;;;;;;4987124;28;19934;-73
2022/11/09 12:35:29;;;;;;;;;;;13.40;99.90;;;;;;4991369;28;19925;-72
2022/11/09 12:37:58;;;;;;;;;;;13.50;99.90;;;;;;4991198;28;19925;-74
2022/11/09 12:40:28;;;;;;;;;;;13.40;99.90;;;;;;4990723;28;20028;-71
2022/11/09 12:42:59;;;;;;;;;;;13.50;99.90;;;;;;4985529;28;20020;-71
2022/11/09 12:45:27;;;;;;;;;;;13.50;99.90;;;;;;4991150;28;19949;-73
2022/11/09 12:48:04;;;;;;;;;;;13.50;99.90;;;;;;4995873;28;20441;-73
2022/11/09 12:50:32;;;;;;;;;;;13.50;99.90;;;;;;4990048;28;19926;-73
2022/11/09 12:53:07;;;;;;;;;;;13.50;99.90;;;;;;4986067;28;19926;-71
2022/11/09 12:55:53;;;;;;;;;;;13.50;99.90;;;;;;4989259;28;19926;-71
2022/11/09 12:58:22;;;;;;;;;;;13.60;99.90;;;;;;5015046;28;19949;-71
2022/11/09 13:03:37;;;;;;;;;;;13.60;99.90;;;;;;4990837;28;19933;-69
2022/11/09 13:06:22;;;;;;;;;;;13.60;99.90;;;;;;4988285;28;19925;-70
2022/11/09 13:08:57;;;;;;;;;;;13.60;99.90;;;;;;4981269;28;19930;-70
2022/11/09 13:11:44;;;;;;;;;;;13.60;99.90;;;;;;4990046;28;19925;-70
2022/11/09 13:14:42;;;;;;;;;;;13.70;99.90;;;;;;5033034;28;19930;-70
2022/11/09 13:17:27;;;;;;;;;;;13.70;99.90;;;;;;5031542;28;20292;-71
2022/11/09 13:20:02;;;;;;;;;;;13.70;99.90;;;;;;4992941;28;19926;-71
2022/11/09 13:22:48;;;;;;;;;;;13.80;99.90;;;;;;4994855;28;19976;-72
2022/11/09 13:25:33;;;;;;;;;;;13.80;99.90;;;;;;4988661;28;19926;-71
2022/11/09 13:28:31;;;;;;;;;;;13.90;99.90;;;;;;4992574;28;19929;-70
2022/11/09 13:30:59;;;;;;;;;;;13.90;99.90;;;;;;4990630;28;19926;-70
2022/11/09 13:33:33;;;;;;;;;;;13.90;99.90;;;;;;4989074;28;20041;-73
2022/11/09 13:36:16;;;;;;;;;;;13.90;99.90;;;;;;4987113;28;19926;-70
2022/11/09 13:38:47;;;;;;;;;;;14.00;99.90;;;;;;4991135;28;19929;-71
2022/11/09 13:41:36;;;;;;;;;;;13.90;99.90;;;;;;4987125;28;20436;-70
2022/11/09 13:44:16;;;;;;;;;;;14.00;99.90;;;;;;4989188;28;19939;-73
2022/11/09 13:46:48;;;;;;;;;;;14.00;99.90;;;;;;4988853;28;20009;-72
2022/11/09 13:49:31;;;;;;;;;;;14.10;99.90;;;;;;4989259;28;19926;-71
2022/11/09 13:52:01;;;;;;;;;;;14.20;99.90;;;;;;4989653;28;20381;-69
2022/11/09 13:54:30;;;;;;;;;;;14.10;99.90;;;;;;4990417;28;19941;-69
2022/11/09 13:56:58;;;;;;;;;;;14.20;99.90;;;;;;4991305;28;19926;-70
2022/11/09 13:59:29;;;;;;;;;;;14.20;99.90;;;;;;4990253;28;19953;-72
2022/11/09 14:01:57;;;;;;;;;;;14.20;99.90;;;;;;4986994;28;19933;-70
2022/11/09 14:04:27;;;;;;;;;;;14.10;99.90;;;;;;4981671;28;19937;-70
2022/11/09 14:07:03;;;;;;;;;;;14.10;99.90;;;;;;4984710;28;19933;-74
2022/11/09 14:09:40;;;;;;;;;;;14.00;99.90;;;;;;4989487;28;19926;-69
2022/11/09 14:12:15;;;;;;;;;;;14.00;99.90;;;;;;4986194;28;19934;-71
2022/11/09 14:15:02;;;;;;;;;;;13.90;99.90;;;;;;4986678;28;19933;-71
2022/11/09 14:17:34;;;;;;;;;;;13.80;99.90;;;;;;4989052;28;19930;-69
2022/11/09 14:20:11;;;;;;;;;;;13.80;99.90;;;;;;5047067;28;19929;-71
2022/11/09 14:22:48;;;;;;;;;;;13.80;99.90;;;;;;4982456;28;19977;-70
2022/11/09 14:25:17;;;;;;;;;;;13.80;99.90;;;;;;4989881;28;20286;-73
2022/11/09 14:27:58;;;;;;;;;;;13.80;99.90;;;;;;4985937;28;19934;-72
2022/11/09 14:30:32;;;;;;;;;;;13.70;99.90;;;;;;4986064;28;20438;-72
2022/11/09 14:32:59;;;;;;;;;;;13.50;99.90;;;;;;4989056;28;19930;-71